Time;durP1;ratioP1;P1;durP2;ratioP2;P2;SDS_P1;SDS_P2;PMS_P1;PMS_P2;Temp;Humidity;BMP_temperature;BMP_pressure;BME280_temperature;BME280_humidity;BME280_pressure;Samples;Min_cycle;Max_cycle;Signal;HPM_P1;HPM_P2
2020/12/17 00:03:45;;;;;;;36.70;25.75;;;;;;;-144.15;0.00;65763.66;10239767;28;20080;-65
2020/12/17 00:08:43;;;;;;;32.90;25.65;;;;;;;-144.15;0.00;65763.66;10239581;28;20041;-64
2020/12/17 00:13:42;;;;;;;44.08;24.52;;;;;;;-144.15;0.00;65763.66;10238339;28;20085;-63
2020/12/17 00:18:39;;;;;;;32.22;24.58;;;;;;;-144.15;0.00;65763.66;10239325;28;20045;-65
2020/12/17 00:23:37;;;;;;;30.75;24.77;;;;;;;-144.15;0.00;65763.66;10237294;28;20050;-65
2020/12/17 00:28:38;;;;;;;78.93;50.95;;;;;;;-144.15;0.00;65763.66;10238747;28;20042;-63
2020/12/17 00:33:36;;;;;;;54.75;36.25;;;;;;;-144.15;0.00;65763.66;10238177;28;20084;-64
2020/12/17 00:38:34;;;;;;;34.35;25.80;;;;;;;-144.15;0.00;65763.66;10238165;28;20050;-65
2020/12/17 00:43:32;;;;;;;37.97;25.85;;;;;;;-144.15;0.00;65763.66;10238006;28;20080;-65
2020/12/17 00:48:30;;;;;;;32.75;25.67;;;;;;;-144.15;0.00;65763.66;10237867;28;20049;-66
2020/12/17 00:53:28;;;;;;;30.85;22.08;;;;;;;-144.15;0.00;65763.66;10237699;28;20569;-64
2020/12/17 00:58:27;;;;;;;36.08;26.23;;;;;;;-144.15;0.00;65763.66;10237599;28;20041;-64
2020/12/17 01:03:24;;;;;;;34.30;24.83;;;;;;;-144.15;0.00;65763.66;10237309;28;20072;-65
2020/12/17 01:08:22;;;;;;;33.20;25.08;;;;;;;-144.15;0.00;65763.66;10237369;28;20084;-65
2020/12/17 01:13:21;;;;;;;32.30;23.48;;;;;;;-144.15;0.00;65763.66;10236444;28;20085;-65
2020/12/17 01:18:18;;;;;;;33.78;23.55;;;;;;;-144.15;0.00;65763.66;10236922;28;20053;-64
2020/12/17 01:23:16;;;;;;;32.05;24.10;;;;;;;-144.15;0.00;65763.66;10236078;28;20051;-65
2020/12/17 01:28:14;;;;;;;31.35;23.58;;;;;;;-144.15;0.00;65763.66;10236426;28;20072;-65
2020/12/17 01:33:13;;;;;;;37.17;24.27;;;;;;;-144.15;0.00;65763.66;10236246;28;20314;-66
2020/12/17 01:38:11;;;;;;;30.20;22.25;;;;;;;-144.15;0.00;65763.66;10236310;28;20072;-66
2020/12/17 01:43:09;;;;;;;31.52;23.40;;;;;;;-144.15;0.00;65763.66;10235982;28;20515;-66
2020/12/17 01:48:08;;;;;;;29.27;20.27;;;;;;;-144.15;0.00;65763.66;10235990;28;20048;-65
2020/12/17 01:53:06;;;;;;;28.20;19.75;;;;;;;-144.15;0.00;65763.66;10235581;28;20085;-65
2020/12/17 01:58:05;;;;;;;29.77;23.75;;;;;;;-144.15;0.00;65763.66;10235629;28;20049;-65
2020/12/17 02:03:04;;;;;;;31.48;22.38;;;;;;;-144.15;0.00;65763.66;10235700;28;20069;-65
2020/12/17 02:08:02;;;;;;;29.90;20.38;;;;;;;-144.15;0.00;65763.66;10235471;28;20041;-66
2020/12/17 02:13:01;;;;;;;26.83;20.23;;;;;;;-144.15;0.00;65763.66;10234823;28;20085;-65
2020/12/17 02:17:58;;;;;;;33.15;23.17;;;;;;;-144.15;0.00;65763.66;10235328;28;20461;-65
2020/12/17 02:22:56;;;;;;;25.52;19.52;;;;;;;-144.15;0.00;65763.66;10235283;28;20199;-65
2020/12/17 02:27:55;;;;;;;44.03;28.20;;;;;;;-144.15;0.00;65763.66;10235057;28;20152;-65
2020/12/17 02:32:52;;;;;;;33.88;24.88;;;;;;;-144.15;0.00;65763.66;10234929;28;20077;-65
2020/12/17 02:37:50;;;;;;;35.35;24.67;;;;;;;-144.15;0.00;65763.66;10243123;28;20068;-65
2020/12/17 02:42:48;;;;;;;28.05;19.65;;;;;;;-144.15;0.00;65763.66;10242894;28;20050;-65
2020/12/17 02:47:47;;;;;;;35.60;25.25;;;;;;;-144.15;0.00;65763.66;10242637;28;20403;-65
2020/12/17 02:52:45;;;;;;;36.75;24.33;;;;;;;-144.15;0.00;65763.66;10242215;28;20503;-64
2020/12/17 02:57:43;;;;;;;34.22;22.98;;;;;;;-144.15;0.00;65763.66;10242031;28;20045;-65
2020/12/17 03:02:41;;;;;;;25.13;19.70;;;;;;;-144.15;0.00;65763.66;10242109;28;20404;-65
2020/12/17 03:07:39;;;;;;;27.60;19.50;;;;;;;-144.15;0.00;65763.66;10241756;28;20454;-64
2020/12/17 03:12:37;;;;;;;35.38;25.23;;;;;;;-144.15;0.00;65763.66;10240951;28;20432;-65
2020/12/17 03:17:35;;;;;;;32.35;23.00;;;;;;;-144.15;0.00;65763.66;10241687;28;20080;-64
2020/12/17 03:22:34;;;;;;;42.13;30.75;;;;;;;-144.15;0.00;65763.66;10241143;28;20034;-65
2020/12/17 03:27:33;;;;;;;57.30;39.75;;;;;;;-144.15;0.00;65763.66;10240878;28;20073;-64
2020/12/17 03:32:31;;;;;;;35.78;27.35;;;;;;;-144.15;0.00;65763.66;10240197;28;20080;-65
2020/12/17 03:37:29;;;;;;;30.77;24.13;;;;;;;-144.15;0.00;65763.66;10240793;28;20443;-65
2020/12/17 03:42:27;;;;;;;29.77;23.48;;;;;;;-144.15;0.00;65763.66;10240323;28;20076;-65
2020/12/17 03:47:25;;;;;;;43.80;31.85;;;;;;;-144.15;0.00;65763.66;10239322;28;20439;-65
2020/12/17 03:52:23;;;;;;;32.80;24.98;;;;;;;-144.15;0.00;65763.66;10240131;28;20056;-65
2020/12/17 03:57:21;;;;;;;43.03;28.85;;;;;;;-144.15;0.00;65763.66;10240065;28;20497;-65
2020/12/17 04:02:18;;;;;;;38.17;27.30;;;;;;;-144.15;0.00;65763.66;10239622;28;20073;-64
2020/12/17 04:07:17;;;;;;;39.75;24.75;;;;;;;-144.15;0.00;65763.66;10238734;28;20069;-65
2020/12/17 04:12:15;;;;;;;31.67;23.70;;;;;;;-144.15;0.00;65763.66;10238711;28;20227;-65
2020/12/17 04:17:13;;;;;;;30.00;23.05;;;;;;;-144.15;0.00;65763.66;10238977;28;20095;-65
2020/12/17 04:22:16;;;;;;;32.03;24.70;;;;;;;-144.15;0.00;65763.66;10238195;28;20048;-65
2020/12/17 04:27:15;;;;;;;34.63;26.10;;;;;;;-144.15;0.00;65763.66;10238189;28;20053;-65
2020/12/17 04:32:13;;;;;;;34.75;23.95;;;;;;;-144.15;0.00;65763.66;10238244;28;20076;-64
2020/12/17 04:37:10;;;;;;;32.45;23.95;;;;;;;-144.15;0.00;65763.66;10237373;28;20081;-64
2020/12/17 04:42:09;;;;;;;33.45;25.70;;;;;;;-144.15;0.00;65763.66;10238016;28;20045;-65
2020/12/17 04:47:12;;;;;;;35.17;26.70;;;;;;;-144.15;0.00;65763.66;10233885;28;20065;-64
2020/12/17 04:52:13;;;;;;;30.88;23.77;;;;;;;-144.15;0.00;65763.66;10233166;28;20073;-64
2020/12/17 04:57:13;;;;;;;33.75;25.23;;;;;;;-144.15;0.00;65763.66;10232674;28;20084;-65
2020/12/17 05:02:13;;;;;;;36.35;25.85;;;;;;;-144.15;0.00;65763.66;10237324;28;20513;-66
2020/12/17 05:07:13;;;;;;;35.10;25.20;;;;;;;-144.15;0.00;65763.66;10235273;28;20052;-66
2020/12/17 05:12:12;;;;;;;33.17;23.77;;;;;;;-144.15;0.00;65763.66;10236172;28;20060;-66
2020/12/17 05:17:10;;;;;;;34.92;25.17;;;;;;;-144.15;0.00;65763.66;10236436;28;20080;-65
2020/12/17 05:22:12;;;;;;;33.97;25.40;;;;;;;-144.15;0.00;65763.66;10236779;28;20046;-65
2020/12/17 05:27:10;;;;;;;34.53;24.67;;;;;;;-144.15;0.00;65763.66;10236083;28;20081;-66
2020/12/17 05:32:09;;;;;;;34.13;25.70;;;;;;;-144.15;0.00;65763.66;10236143;28;20041;-65
2020/12/17 05:37:08;;;;;;;37.60;27.48;;;;;;;-144.15;0.00;65763.66;10238069;28;20053;-65
2020/12/17 05:42:06;;;;;;;36.83;26.00;;;;;;;-144.15;0.00;65763.66;10235773;28;20042;-65
2020/12/17 05:47:03;;;;;;;43.55;32.08;;;;;;;-144.15;0.00;65763.66;10236026;28;20517;-66
2020/12/17 05:52:14;;;;;;;42.97;29.92;;;;;;;-144.15;0.00;65763.66;10235732;28;20080;-65
2020/12/17 05:57:13;;;;;;;45.75;31.17;;;;;;;-144.15;0.00;65763.66;10235527;28;20083;-65
2020/12/17 06:02:25;;;;;;;43.05;30.70;;;;;;;-144.15;0.00;65763.66;10235685;28;20471;-65
2020/12/17 06:07:32;;;;;;;38.75;29.80;;;;;;;-144.15;0.00;65763.66;10235187;28;20049;-66
2020/12/17 06:12:45;;;;;;;42.45;31.05;;;;;;;-144.15;0.00;65763.66;10243740;28;20068;-65
2020/12/17 06:17:48;;;;;;;98.40;60.10;;;;;;;-144.15;0.00;65763.66;10243395;28;20507;-66
2020/12/17 06:22:55;;;;;;;332.02;165.27;;;;;;;-144.15;0.00;65763.66;10243368;28;20411;-66
2020/12/17 06:27:53;;;;;;;169.80;93.88;;;;;;;-144.15;0.00;65763.66;10243311;28;20056;-66
2020/12/17 06:32:55;;;;;;;421.23;173.77;;;;;;;-144.15;0.00;65763.66;10243013;28;20068;-66
2020/12/17 06:37:55;;;;;;;292.67;142.05;;;;;;;-144.15;0.00;65763.66;10242790;28;20081;-65
2020/12/17 06:43:12;;;;;;;217.48;104.80;;;;;;;-144.15;0.00;65763.66;10243030;28;20442;-65
2020/12/17 06:48:29;;;;;;;197.35;124.25;;;;;;;-144.15;0.00;65763.66;10242522;28;20045;-66
2020/12/17 06:53:41;;;;;;;268.35;191.10;;;;;;;-144.15;0.00;65763.66;10242278;28;20462;-65
2020/12/17 06:58:39;;;;;;;49.13;33.08;;;;;;;-144.15;0.00;65763.66;10242276;28;20042;-65
2020/12/17 07:03:55;;;;;;;60.80;40.88;;;;;;;-144.15;0.00;65763.66;10242199;28;20045;-65
2020/12/17 07:08:54;;;;;;;61.15;39.53;;;;;;;-144.15;0.00;65763.66;10242377;28;20080;-65
2020/12/17 07:13:54;;;;;;;64.80;44.90;;;;;;;-144.15;0.00;65763.66;10241121;28;20076;-65
2020/12/17 07:18:52;;;;;;;70.55;51.00;;;;;;;-144.15;0.00;65763.66;10241577;28;20046;-66
2020/12/17 07:23:50;;;;;;;123.95;70.68;;;;;;;-144.15;0.00;65763.66;10239967;28;20053;-66
2020/12/17 07:28:53;;;;;;;109.07;68.85;;;;;;;-144.15;0.00;65763.66;10241225;28;20072;-65
2020/12/17 07:33:51;;;;;;;97.57;61.92;;;;;;;-144.15;0.00;65763.66;10241114;28;20107;-66
2020/12/17 07:38:49;;;;;;;53.28;39.00;;;;;;;-144.15;0.00;65763.66;10240767;28;20049;-65
2020/12/17 07:43:47;;;;;;;39.65;29.13;;;;;;;-144.15;0.00;65763.66;10240757;28;20064;-65
2020/12/17 07:48:46;;;;;;;62.35;42.67;;;;;;;-144.15;0.00;65763.66;10240312;28;20103;-65
2020/12/17 07:53:47;;;;;;;46.92;31.85;;;;;;;-144.15;0.00;65763.66;10238662;28;20045;-65
2020/12/17 07:58:46;;;;;;;49.05;35.25;;;;;;;-144.15;0.00;65763.66;10240209;28;20050;-64
2020/12/17 08:03:47;;;;;;;88.43;49.08;;;;;;;-144.15;0.00;65763.66;10240060;28;20079;-64
2020/12/17 08:08:46;;;;;;;69.28;41.75;;;;;;;-144.15;0.00;65763.66;10238158;28;20057;-64
2020/12/17 08:14:02;;;;;;;105.55;57.60;;;;;;;-144.15;0.00;65763.66;10238666;28;20100;-64
2020/12/17 08:19:02;;;;;;;130.27;84.00;;;;;;;-144.15;0.00;65763.66;10239389;28;20045;-65
2020/12/17 08:24:00;;;;;;;53.55;34.85;;;;;;;-144.15;0.00;65763.66;10238007;28;20049;-64
2020/12/17 08:28:57;;;;;;;91.63;62.95;;;;;;;-144.15;0.00;65763.66;10237791;28;20050;-64
2020/12/17 08:33:57;;;;;;;43.05;29.77;;;;;;;-144.15;0.00;65763.66;10238561;28;20069;-64
2020/12/17 08:38:58;;;;;;;69.35;42.33;;;;;;;-144.15;0.00;65763.66;10238648;28;20041;-64
2020/12/17 08:44:01;;;;;;;39.53;29.08;;;;;;;-144.15;0.00;65763.66;10238492;28;20080;-64
2020/12/17 08:49:04;;;;;;;45.25;29.73;;;;;;;-144.15;0.00;65763.66;10238206;28;20057;-65
2020/12/17 08:54:03;;;;;;;27.20;19.65;;;;;;;-144.15;0.00;65763.66;10237902;28;20045;-66
2020/12/17 08:59:03;;;;;;;144.13;91.30;;;;;;;-144.15;0.00;65763.66;10237675;28;20045;-65
2020/12/17 09:04:06;;;;;;;41.30;28.90;;;;;;;-144.15;0.00;65763.66;10237606;28;20180;-66
2020/12/17 09:09:14;;;;;;;62.10;39.25;;;;;;;-144.15;0.00;65763.66;10237353;28;20042;-65
2020/12/17 09:14:13;;;;;;;125.65;71.35;;;;;;;-144.15;0.00;65763.66;10236531;28;20100;-65
2020/12/17 09:19:10;;;;;;;129.85;74.50;;;;;;;-144.15;0.00;65763.66;10236246;28;20483;-64
2020/12/17 09:24:08;;;;;;;85.05;55.40;;;;;;;-144.15;0.00;65763.66;10236870;28;20045;-66
2020/12/17 09:29:07;;;;;;;228.27;112.00;;;;;;;-144.15;0.00;65763.66;10236393;28;20402;-65
2020/12/17 09:34:10;;;;;;;44.72;29.10;;;;;;;-144.15;0.00;65763.66;10236131;28;20056;-65
2020/12/17 09:39:12;;;;;;;50.83;31.52;;;;;;;-144.15;0.00;65763.66;10236587;28;20045;-65
2020/12/17 09:44:10;;;;;;;73.43;43.28;;;;;;;-144.15;0.00;65763.66;10235777;28;20049;-66
2020/12/17 09:49:21;;;;;;;57.92;38.08;;;;;;;-144.15;0.00;65763.66;10236062;28;20483;-66
2020/12/17 09:54:19;;;;;;;48.55;31.70;;;;;;;-144.15;0.00;65763.66;10235883;28;20072;-65
2020/12/17 09:59:17;;;;;;;57.03;36.47;;;;;;;-144.15;0.00;65763.66;10235834;28;20044;-65
2020/12/17 10:04:18;;;;;;;48.33;33.83;;;;;;;-144.15;0.00;65763.66;10235778;28;20078;-66
2020/12/17 10:09:16;;;;;;;46.28;31.85;;;;;;;-144.15;0.00;65763.66;10235857;28;20085;-66
2020/12/17 10:14:14;;;;;;;42.95;29.33;;;;;;;-144.15;0.00;65763.66;10235104;28;20096;-65
2020/12/17 10:19:13;;;;;;;58.72;39.95;;;;;;;-144.15;0.00;65763.66;10235448;28;20056;-65
2020/12/17 10:24:11;;;;;;;49.85;37.25;;;;;;;-144.15;0.00;65763.66;10235620;28;20097;-65
2020/12/17 10:29:08;;;;;;;50.80;32.33;;;;;;;-144.15;0.00;65763.66;10235243;28;20069;-65
2020/12/17 10:34:06;;;;;;;225.90;153.52;;;;;;;-144.15;0.00;65763.66;10235393;28;20402;-67
2020/12/17 10:39:05;;;;;;;49.92;32.47;;;;;;;-144.15;0.00;65763.66;10235048;28;20046;-65
2020/12/17 10:44:04;;;;;;;42.08;28.70;;;;;;;-144.15;0.00;65763.66;10235022;28;20045;-66
2020/12/17 10:49:03;;;;;;;42.55;26.45;;;;;;;-144.15;0.00;65763.66;10234972;28;20046;-67
2020/12/17 10:54:01;;;;;;;42.17;29.15;;;;;;;-144.15;0.00;65763.66;10235309;28;20081;-67
2020/12/17 10:59:00;;;;;;;85.63;59.05;;;;;;;-144.15;0.00;65763.66;10242313;28;20084;-67
2020/12/17 11:03:58;;;;;;;110.30;72.78;;;;;;;-144.15;0.00;65763.66;10242517;28;20041;-67
2020/12/17 11:08:55;;;;;;;77.65;51.70;;;;;;;-144.15;0.00;65763.66;10241966;28;20422;-66
2020/12/17 11:13:53;;;;;;;62.25;41.67;;;;;;;-144.15;0.00;65763.66;10241163;28;20092;-66
2020/12/17 11:18:52;;;;;;;42.78;29.00;;;;;;;-144.15;0.00;65763.66;10241565;28;20080;-64
2020/12/17 11:23:50;;;;;;;53.80;33.63;;;;;;;-144.15;0.00;65763.66;10241525;28;20041;-64
2020/12/17 11:28:47;;;;;;;66.97;42.58;;;;;;;-144.15;0.00;65763.66;10240656;28;20439;-66
2020/12/17 11:33:45;;;;;;;77.32;55.00;;;;;;;-144.15;0.00;65763.66;10239048;28;20041;-67
2020/12/17 11:38:44;;;;;;;49.28;30.77;;;;;;;-144.15;0.00;65763.66;10240687;28;20083;-67
2020/12/17 11:43:42;;;;;;;51.17;34.00;;;;;;;-144.15;0.00;65763.66;10240620;28;20041;-65
2020/12/17 11:48:40;;;;;;;57.15;36.33;;;;;;;-144.15;0.00;65763.66;10240827;28;20057;-64
2020/12/17 11:53:38;;;;;;;58.00;37.88;;;;;;;-144.15;0.00;65763.66;10240313;28;20486;-66
2020/12/17 11:58:36;;;;;;;188.85;126.20;;;;;;;-144.15;0.00;65763.66;10235942;28;20088;-66
2020/12/17 12:03:34;;;;;;;63.03;40.80;;;;;;;-144.15;0.00;65763.66;10235346;28;20069;-67
2020/12/17 12:08:32;;;;;;;65.43;45.88;;;;;;;-144.15;0.00;65763.66;10235500;28;20464;-66
2020/12/17 12:13:30;;;;;;;74.15;46.90;;;;;;;-144.15;0.00;65763.66;10236753;28;20092;-68
2020/12/17 12:18:28;;;;;;;202.57;115.05;;;;;;;-144.15;0.00;65763.66;10238079;28;20069;-65
2020/12/17 12:23:27;;;;;;;93.15;57.60;;;;;;;-144.15;0.00;65763.66;10237673;28;20041;-64
2020/12/17 12:28:25;;;;;;;86.88;55.38;;;;;;;-144.15;0.00;65763.66;10239027;28;20046;-66
2020/12/17 12:33:22;;;;;;;157.73;75.70;;;;;;;-144.15;0.00;65763.66;10237987;28;20088;-65
2020/12/17 12:38:22;;;;;;;228.82;142.07;;;;;;;-144.15;0.00;65763.66;10237530;28;20083;-67
2020/12/17 12:43:19;;;;;;;76.38;44.67;;;;;;;-144.15;0.00;65763.66;10237931;28;20073;-66
2020/12/17 12:48:17;;;;;;;135.80;77.80;;;;;;;-144.15;0.00;65763.66;10237442;28;20076;-68
2020/12/17 12:53:15;;;;;;;80.97;46.03;;;;;;;-144.15;0.00;65763.66;10237712;28;20041;-66
2020/12/17 12:58:14;;;;;;;98.43;55.35;;;;;;;-144.15;0.00;65763.66;10237521;28;20073;-66
2020/12/17 13:03:12;;;;;;;101.85;60.03;;;;;;;-144.15;0.00;65763.66;10237318;28;20073;-66
2020/12/17 13:08:10;;;;;;;115.25;55.90;;;;;;;-144.15;0.00;65763.66;10237191;28;20076;-68
2020/12/17 13:13:08;;;;;;;535.60;226.18;;;;;;;-144.15;0.00;65763.66;10236461;28;20054;-68
2020/12/17 13:18:07;;;;;;;413.00;192.65;;;;;;;-144.15;0.00;65763.66;10236044;28;20093;-66
2020/12/17 13:23:04;;;;;;;911.15;436.55;;;;;;;-144.15;0.00;65763.66;10236598;28;20446;-66
2020/12/17 13:28:02;;;;;;;592.42;305.15;;;;;;;-144.15;0.00;65763.66;10236553;28;20467;-67
2020/12/17 13:33:00;;;;;;;455.88;204.30;;;;;;;-144.15;0.00;65763.66;10236316;28;20092;-67
2020/12/17 13:38:02;;;;;;;580.65;287.63;;;;;;;-144.15;0.00;65763.66;10236144;28;20072;-67
2020/12/17 13:43:00;;;;;;;687.97;332.45;;;;;;;-144.15;0.00;65763.66;10236074;28;20478;-67
2020/12/17 13:47:58;;;;;;;831.85;434.38;;;;;;;-144.15;0.00;65763.66;10235830;28;20121;-66
2020/12/17 13:52:55;;;;;;;447.35;218.65;;;;;;;-144.15;0.00;65763.66;10235813;28;20041;-69
2020/12/17 13:57:54;;;;;;;248.88;128.50;;;;;;;-144.15;0.00;65763.66;10235957;28;20451;-68
2020/12/17 14:02:52;;;;;;;168.38;89.68;;;;;;;-144.15;0.00;65763.66;10235508;28;20049;-67
2020/12/17 14:07:49;;;;;;;220.52;120.07;;;;;;;-144.15;0.00;65763.66;10235597;28;20072;-67
2020/12/17 14:12:47;;;;;;;191.50;115.47;;;;;;;-144.15;0.00;65763.66;10235044;28;20050;-67
2020/12/17 14:17:46;;;;;;;157.85;88.30;;;;;;;-144.15;0.00;65763.66;10235160;28;20529;-68
2020/12/17 14:22:45;;;;;;;476.15;266.05;;;;;;;-144.15;0.00;65763.66;10235284;28;20052;-67
2020/12/17 14:27:43;;;;;;;382.85;232.65;;;;;;;-144.15;0.00;65763.66;10235226;28;20056;-67
2020/12/17 14:32:41;;;;;;;150.82;83.50;;;;;;;-144.15;0.00;65763.66;10241307;28;20416;-67
2020/12/17 14:37:41;;;;;;;151.02;85.50;;;;;;;-144.15;0.00;65763.66;10243099;28;20132;-68
2020/12/17 14:42:39;;;;;;;188.88;109.78;;;;;;;-144.15;0.00;65763.66;10242917;28;20049;-67
2020/12/17 14:47:51;;;;;;;165.30;89.47;;;;;;;-144.15;0.00;65763.66;10242640;28;20049;-67
2020/12/17 14:52:49;;;;;;;222.38;113.80;;;;;;;-144.15;0.00;65763.66;10242410;28;20041;-67
2020/12/17 14:57:47;;;;;;;165.65;94.80;;;;;;;-144.15;0.00;65763.66;10242206;28;20080;-67
2020/12/17 15:02:45;;;;;;;157.45;93.10;;;;;;;-144.15;0.00;65763.66;10240499;28;20478;-68
2020/12/17 15:07:43;;;;;;;123.80;76.40;;;;;;;-144.15;0.00;65763.66;10240630;28;20054;-68
2020/12/17 15:12:42;;;;;;;81.30;48.85;;;;;;;-144.15;0.00;65763.66;10240982;28;20086;-67
2020/12/17 15:17:42;;;;;;;95.20;53.05;;;;;;;-144.15;0.00;65763.66;10239137;28;20069;-66
2020/12/17 15:22:40;;;;;;;111.13;67.38;;;;;;;-144.15;0.00;65763.66;10239353;28;20077;-66
2020/12/17 15:27:39;;;;;;;353.17;200.80;;;;;;;-144.15;0.00;65763.66;10237299;28;20068;-67
2020/12/17 15:32:37;;;;;;;183.52;101.78;;;;;;;-144.15;0.00;65763.66;10237612;28;20069;-66
2020/12/17 15:37:35;;;;;;;176.05;93.50;;;;;;;-144.15;0.00;65763.66;10238285;28;20072;-66
2020/12/17 15:42:32;;;;;;;71.50;44.40;;;;;;;-144.15;0.00;65763.66;10238838;28;20045;-66
2020/12/17 15:47:30;;;;;;;127.15;76.57;;;;;;;-144.15;0.00;65763.66;10240270;28;20087;-67
2020/12/17 15:52:29;;;;;;;91.18;57.13;;;;;;;-144.15;0.00;65763.66;10240157;28;20072;-66
2020/12/17 15:57:27;;;;;;;60.22;37.85;;;;;;;-144.15;0.00;65763.66;10239767;28;20475;-66
2020/12/17 16:02:27;;;;;;;45.67;30.73;;;;;;;-144.15;0.00;65763.66;10239732;28;20042;-66
2020/12/17 16:07:25;;;;;;;53.75;36.05;;;;;;;-144.15;0.00;65763.66;10239500;28;20060;-66
2020/12/17 16:12:24;;;;;;;55.65;32.33;;;;;;;-144.15;0.00;65763.66;10238865;28;20431;-66
2020/12/17 16:17:24;;;;;;;52.95;35.97;;;;;;;-144.15;0.00;65763.66;10239197;28;20131;-66
2020/12/17 16:22:22;;;;;;;74.18;46.50;;;;;;;-144.15;0.00;65763.66;10239001;28;20505;-67
2020/12/17 16:27:21;;;;;;;92.75;59.60;;;;;;;-144.15;0.00;65763.66;10238950;28;20053;-67
2020/12/17 16:32:19;;;;;;;108.18;63.00;;;;;;;-144.15;0.00;65763.66;10238712;28;20412;-66
2020/12/17 16:37:17;;;;;;;90.88;54.83;;;;;;;-144.15;0.00;65763.66;10237207;28;20111;-67
2020/12/17 16:42:16;;;;;;;110.13;69.63;;;;;;;-144.15;0.00;65763.66;10238162;28;20053;-68
2020/12/17 16:47:13;;;;;;;71.15;46.45;;;;;;;-144.15;0.00;65763.66;10238093;28;20076;-67
2020/12/17 16:52:12;;;;;;;96.32;56.25;;;;;;;-144.15;0.00;65763.66;10237759;28;20054;-67
2020/12/17 16:57:10;;;;;;;61.80;42.85;;;;;;;-144.15;0.00;65763.66;10237617;28;20076;-67
2020/12/17 17:02:09;;;;;;;60.78;38.53;;;;;;;-144.15;0.00;65763.66;10237678;28;20045;-67
2020/12/17 17:07:07;;;;;;;76.55;49.35;;;;;;;-144.15;0.00;65763.66;10237079;28;20078;-67
2020/12/17 17:12:06;;;;;;;69.10;40.22;;;;;;;-144.15;0.00;65763.66;10236532;28;20054;-67
2020/12/17 17:17:04;;;;;;;94.25;64.70;;;;;;;-144.15;0.00;65763.66;10236825;28;20080;-68
2020/12/17 17:22:05;;;;;;;159.65;95.47;;;;;;;-144.15;0.00;65763.66;10236576;28;20080;-66
2020/12/17 17:27:03;;;;;;;171.93;89.90;;;;;;;-144.15;0.00;65763.66;10236770;28;20046;-67
2020/12/17 17:32:01;;;;;;;120.05;68.45;;;;;;;-144.15;0.00;65763.66;10236329;28;20092;-68
2020/12/17 17:36:59;;;;;;;132.50;85.57;;;;;;;-144.15;0.00;65763.66;10236288;28;20084;-68
2020/12/17 17:41:58;;;;;;;53.83;35.65;;;;;;;-144.15;0.00;65763.66;10235891;28;20044;-68
2020/12/17 17:46:57;;;;;;;86.88;56.90;;;;;;;-144.15;0.00;65763.66;10235975;28;20096;-68
2020/12/17 17:51:56;;;;;;;103.63;70.57;;;;;;;-144.15;0.00;65763.66;10234962;28;20073;-68
2020/12/17 17:56:54;;;;;;;129.18;94.13;;;;;;;-144.15;0.00;65763.66;10235834;28;20080;-66
2020/12/17 18:01:53;;;;;;;71.68;50.40;;;;;;;-144.15;0.00;65763.66;10235544;28;20080;-66
2020/12/17 18:06:51;;;;;;;70.85;52.17;;;;;;;-144.15;0.00;65763.66;10234728;28;20049;-66
2020/12/17 18:11:50;;;;;;;33.70;22.75;;;;;;;-144.15;0.00;65763.66;10234720;28;20493;-68
2020/12/17 18:16:48;;;;;;;59.47;39.55;;;;;;;-144.15;0.00;65763.66;10234479;28;20072;-67
2020/12/17 18:21:46;;;;;;;48.35;32.22;;;;;;;-144.15;0.00;65763.66;10234893;28;20080;-66
2020/12/17 18:26:45;;;;;;;60.08;39.47;;;;;;;-144.15;0.00;65763.66;10234907;28;20073;-68
2020/12/17 18:31:47;;;;;;;35.35;25.40;;;;;;;-144.15;0.00;65763.66;10234699;28;20490;-66
2020/12/17 18:36:45;;;;;;;36.20;24.10;;;;;;;-144.15;0.00;65763.66;10234711;28;20092;-66
2020/12/17 18:41:45;;;;;;;35.70;21.85;;;;;;;-144.15;0.00;65763.66;10234201;28;20054;-67
2020/12/17 18:46:43;;;;;;;148.10;67.18;;;;;;;-144.15;0.00;65763.66;10234335;28;20068;-66
2020/12/17 18:51:42;;;;;;;72.82;41.95;;;;;;;-144.15;0.00;65763.66;10234259;28;20301;-66
2020/12/17 18:56:43;;;;;;;45.70;33.55;;;;;;;-144.15;0.00;65763.66;10234247;28;20084;-68
2020/12/17 19:01:43;;;;;;;34.03;23.25;;;;;;;-144.15;0.00;65763.66;10233629;28;20048;-65
2020/12/17 19:06:45;;;;;;;79.63;49.20;;;;;;;-144.15;0.00;65763.66;10233647;28;20037;-67
2020/12/17 19:11:43;;;;;;;79.32;56.35;;;;;;;-144.15;0.00;65763.66;10233440;28;20053;-67
2020/12/17 19:16:41;;;;;;;72.47;43.75;;;;;;;-144.15;0.00;65763.66;10234815;28;20077;-67
2020/12/17 19:21:43;;;;;;;76.60;47.90;;;;;;;-144.15;0.00;65763.66;10237851;28;20065;-66
2020/12/17 19:26:41;;;;;;;139.23;92.45;;;;;;;-144.15;0.00;65763.66;10232612;28;20106;-66
2020/12/17 19:31:41;;;;;;;85.35;56.08;;;;;;;-144.15;0.00;65763.66;10235230;28;20069;-67
2020/12/17 19:36:41;;;;;;;65.15;44.70;;;;;;;-144.15;0.00;65763.66;10239848;28;20080;-65
2020/12/17 19:41:40;;;;;;;162.80;76.78;;;;;;;-144.15;0.00;65763.66;10240203;28;20045;-68
2020/12/17 19:46:37;;;;;;;103.22;55.08;;;;;;;-144.15;0.00;65763.66;10239690;28;20050;-67
2020/12/17 19:51:35;;;;;;;149.20;76.78;;;;;;;-144.15;0.00;65763.66;10239775;28;20500;-68
2020/12/17 19:56:33;;;;;;;251.93;110.57;;;;;;;-144.15;0.00;65763.66;10239106;28;20525;-65
2020/12/17 20:01:33;;;;;;;127.68;63.75;;;;;;;-144.15;0.00;65763.66;10239293;28;20052;-66
2020/12/17 20:06:34;;;;;;;132.95;79.43;;;;;;;-144.15;0.00;65763.66;10239629;28;20045;-66
2020/12/17 20:11:32;;;;;;;116.65;71.20;;;;;;;-144.15;0.00;65763.66;10238964;28;20093;-67
2020/12/17 20:16:30;;;;;;;144.75;82.55;;;;;;;-144.15;0.00;65763.66;10238945;28;20513;-67
2020/12/17 20:21:28;;;;;;;110.95;59.97;;;;;;;-144.15;0.00;65763.66;10238959;28;20049;-67
2020/12/17 20:26:28;;;;;;;123.50;72.30;;;;;;;-144.15;0.00;65763.66;10235703;28;20076;-66
2020/12/17 20:31:27;;;;;;;134.52;83.03;;;;;;;-144.15;0.00;65763.66;10238590;28;20084;-67
2020/12/17 20:36:27;;;;;;;99.40;62.20;;;;;;;-144.15;0.00;65763.66;10238361;28;20056;-67
2020/12/17 20:41:27;;;;;;;63.85;36.90;;;;;;;-144.15;0.00;65763.66;10237871;28;20462;-68
2020/12/17 20:46:25;;;;;;;72.55;47.05;;;;;;;-144.15;0.00;65763.66;10237848;28;20049;-68
2020/12/17 20:51:23;;;;;;;64.38;38.38;;;;;;;-144.15;0.00;65763.66;10237973;28;20069;-67
2020/12/17 20:56:21;;;;;;;78.50;39.78;;;;;;;-144.15;0.00;65763.66;10237897;28;20565;-67
2020/12/17 21:01:22;;;;;;;78.53;38.35;;;;;;;-144.15;0.00;65763.66;10237289;28;20061;-67
2020/12/17 21:06:20;;;;;;;83.75;41.55;;;;;;;-144.15;0.00;65763.66;10237210;28;20045;-68
2020/12/17 21:11:19;;;;;;;100.75;52.65;;;;;;;-144.15;0.00;65763.66;10236943;28;20061;-68
2020/12/17 21:16:18;;;;;;;76.65;46.60;;;;;;;-144.15;0.00;65763.66;10236705;28;20045;-68
2020/12/17 21:21:34;;;;;;;;;;;;;;;-144.15;0.00;65763.66;10237140;28;20491;-67
2020/12/17 21:26:33;;;;;;;236.93;144.98;;;;;;;-144.15;0.00;65763.66;10236982;28;19932;-67
2020/12/17 21:31:31;;;;;;;144.90;90.55;;;;;;;-144.15;0.00;65763.66;10236080;28;20092;-67
2020/12/17 21:36:29;;;;;;;158.32;101.55;;;;;;;-144.15;0.00;65763.66;10236057;28;20073;-67
2020/12/17 21:41:30;;;;;;;76.65;49.28;;;;;;;-144.15;0.00;65763.66;10234989;28;20076;-66
2020/12/17 21:46:28;;;;;;;40.60;22.88;;;;;;;-144.15;0.00;65763.66;10235722;28;20045;-66
2020/12/17 21:51:26;;;;;;;71.03;42.95;;;;;;;-144.15;0.00;65763.66;10233299;28;20467;-66
2020/12/17 21:56:23;;;;;;;84.22;49.05;;;;;;;-144.15;0.00;65763.66;10233644;28;20343;-66
2020/12/17 22:01:22;;;;;;;98.20;61.50;;;;;;;-144.15;0.00;65763.66;10233412;28;20073;-67
2020/12/17 22:06:20;;;;;;;94.35;58.95;;;;;;;-144.15;0.00;65763.66;10235298;28;20069;-67
2020/12/17 22:11:23;;;;;;;94.40;58.95;;;;;;;-144.15;0.00;65763.66;10235283;28;20092;-67
2020/12/17 22:16:22;;;;;;;364.38;186.40;;;;;;;-144.15;0.00;65763.66;10235143;28;20044;-68
2020/12/17 22:21:21;;;;;;;262.80;159.63;;;;;;;-144.15;0.00;65763.66;10234468;28;20494;-68